createdAt,value
2022-10-11T00:02:17.684Z,6.80
2022-10-11T00:04:45.933Z,7.00
2022-10-11T00:07:13.846Z,6.40
2022-10-11T00:09:42.576Z,6.90
2022-10-11T00:12:10.395Z,5.77
2022-10-11T00:14:38.941Z,6.90
2022-10-11T00:17:07.722Z,5.83
2022-10-11T00:19:36.877Z,6.67
2022-10-11T00:22:04.818Z,5.53
2022-10-11T00:24:32.664Z,5.83
2022-10-11T00:27:00.484Z,5.93
2022-10-11T00:29:28.385Z,6.10
2022-10-11T00:31:56.227Z,6.43
2022-10-11T00:34:24.166Z,5.63
2022-10-11T00:36:53.327Z,6.17
2022-10-11T00:39:21.399Z,6.07
2022-10-11T00:41:50.113Z,5.70
2022-10-11T00:44:20.553Z,5.57
2022-10-11T00:46:55.841Z,5.93
2022-10-11T00:49:31.368Z,5.40
2022-10-11T00:52:04.085Z,5.37
2022-10-11T00:54:36.187Z,6.20
2022-10-11T00:57:07.921Z,5.93
2022-10-11T00:59:39.263Z,5.23
2022-10-11T01:02:08.480Z,4.90
2022-10-11T01:04:36.449Z,5.20
2022-10-11T01:07:05.987Z,5.53
2022-10-11T01:09:34.725Z,4.90
2022-10-11T01:12:06.255Z,5.43
2022-10-11T01:15:09.242Z,5.63
2022-10-11T01:17:47.376Z,4.47
2022-10-11T01:20:35.727Z,4.97
2022-10-11T01:23:37.980Z,5.20
2022-10-11T01:26:25.415Z,5.20
2022-10-11T01:29:04.532Z,4.97
2022-10-11T01:31:42.163Z,4.83
2022-10-11T01:34:15.974Z,4.70
2022-10-11T01:36:50.846Z,4.40
2022-10-11T01:39:25.081Z,5.00
2022-10-11T01:41:56.919Z,4.37
2022-10-11T01:44:26.643Z,5.07
2022-10-11T01:46:56.156Z,4.87
2022-10-11T01:49:24.293Z,4.50
2022-10-11T01:51:55.896Z,5.10
2022-10-11T01:55:04.014Z,4.77
2022-10-11T01:57:58.063Z,4.63
2022-10-11T02:00:30.103Z,4.60
2022-10-11T02:03:13.813Z,5.33
2022-10-11T02:05:48.027Z,4.67
2022-10-11T02:08:23.781Z,4.73
2022-10-11T02:10:56.904Z,4.87
2022-10-11T02:13:29.459Z,4.90
2022-10-11T02:15:59.855Z,4.67
2022-10-11T02:18:34.072Z,4.90
2022-10-11T02:21:05.656Z,4.37
2022-10-11T02:23:37.915Z,4.60
2022-10-11T02:26:08.043Z,5.13
2022-10-11T02:28:40.349Z,4.67
2022-10-11T02:31:11.002Z,4.47
2022-10-11T02:33:45.948Z,4.50
2022-10-11T02:36:18.808Z,4.90
2022-10-11T02:38:51.420Z,4.77
2022-10-11T02:41:26.175Z,4.93
2022-10-11T02:43:59.479Z,4.47
2022-10-11T02:46:30.347Z,5.63
2022-10-11T02:49:00.838Z,4.73
2022-10-11T02:51:31.152Z,4.40
2022-10-11T02:53:59.223Z,4.33
2022-10-11T02:56:27.230Z,3.93
2022-10-11T02:58:55.154Z,4.90
2022-10-11T03:01:23.004Z,4.50
2022-10-11T03:03:50.882Z,3.90
2022-10-11T03:06:20.246Z,4.13
2022-10-11T03:08:48.095Z,4.10
2022-10-11T03:11:15.961Z,4.13
2022-10-11T03:13:43.774Z,5.13
2022-10-11T03:16:12.110Z,5.50
2022-10-11T03:18:40.154Z,4.37
2022-10-11T03:21:08.022Z,5.03
2022-10-11T03:23:37.262Z,4.90
2022-10-11T03:26:05.258Z,4.00
2022-10-11T03:28:33.283Z,4.33
2022-10-11T03:31:01.173Z,3.93
2022-10-11T03:33:29.017Z,4.10
2022-10-11T03:35:56.815Z,4.37
2022-10-11T03:38:24.694Z,4.53
2022-10-11T03:40:53.907Z,4.20
2022-10-11T03:43:21.791Z,3.90
2022-10-11T03:45:49.656Z,4.03
2022-10-11T03:48:17.494Z,3.97
2022-10-11T03:50:45.323Z,4.60
2022-10-11T03:53:13.152Z,5.20
2022-10-11T03:55:41.374Z,4.97
2022-10-11T03:58:11.276Z,4.60
2022-10-11T04:00:40.033Z,3.83
2022-10-11T04:03:07.851Z,4.13
2022-10-11T04:05:35.667Z,4.77
2022-10-11T04:08:06.270Z,4.30
2022-10-11T04:10:36.527Z,4.50
2022-10-11T04:13:04.379Z,4.90
2022-10-11T04:15:33.565Z,4.33
2022-10-11T04:18:01.447Z,5.00
2022-10-11T04:20:29.317Z,5.10
2022-10-11T04:22:57.155Z,4.63
2022-10-11T04:25:25.307Z,4.97
2022-10-11T04:27:53.336Z,4.77
2022-10-11T04:30:22.073Z,4.80
2022-10-11T04:32:51.239Z,4.83
2022-10-11T04:35:19.178Z,4.97
2022-10-11T04:37:46.971Z,4.73
2022-10-11T04:40:14.833Z,5.33
2022-10-11T04:42:42.668Z,5.33
2022-10-11T04:45:11.162Z,5.63
2022-10-11T04:47:40.346Z,5.40
2022-10-11T04:50:09.880Z,5.90
2022-10-11T04:52:37.695Z,5.27
2022-10-11T04:55:06.266Z,5.60
2022-10-11T04:57:34.098Z,5.77
2022-10-11T05:00:01.877Z,5.20
2022-10-11T05:02:29.791Z,5.57
2022-10-11T05:04:57.675Z,6.23
2022-10-11T05:07:26.831Z,6.10
2022-10-11T05:09:54.723Z,5.23
2022-10-11T05:12:22.616Z,5.83
2022-10-11T05:14:50.608Z,6.10
2022-10-11T05:17:18.552Z,6.20
2022-10-11T05:19:46.374Z,6.17
2022-10-11T05:22:14.273Z,6.03
2022-10-11T05:24:43.475Z,5.67
2022-10-11T05:27:11.367Z,7.40
2022-10-11T05:29:39.254Z,7.07
2022-10-11T05:32:07.119Z,5.60
2022-10-11T05:34:34.932Z,5.23
2022-10-11T05:37:02.884Z,5.43
2022-10-11T05:39:30.753Z,6.30
2022-10-11T05:41:59.921Z,5.80
2022-10-11T05:44:27.918Z,6.20
2022-10-11T05:46:55.874Z,6.93
2022-10-11T05:49:23.685Z,7.17
2022-10-11T05:51:51.613Z,5.73
2022-10-11T05:54:19.408Z,6.10
2022-10-11T05:56:47.287Z,4.97
2022-10-11T05:59:16.772Z,5.20
2022-10-11T06:01:44.674Z,5.03
2022-10-11T06:04:12.948Z,5.73
2022-10-11T06:06:40.775Z,5.40
2022-10-11T06:09:08.594Z,5.33
2022-10-11T06:11:36.569Z,5.83
2022-10-11T06:14:04.405Z,5.60
2022-10-11T06:16:33.536Z,5.73
2022-10-11T06:19:01.364Z,6.67
2022-10-11T06:21:29.218Z,5.93
2022-10-11T06:24:01.282Z,6.20
2022-10-11T06:26:29.911Z,6.70
2022-10-11T06:28:58.645Z,6.93
2022-10-11T06:31:26.613Z,7.03
2022-10-11T06:33:55.838Z,6.00
2022-10-11T06:36:23.763Z,6.80
2022-10-11T06:38:52.907Z,6.13
2022-10-11T06:41:23.471Z,6.77
2022-10-11T06:43:51.994Z,6.10
2022-10-11T06:46:21.249Z,5.83
2022-10-11T06:48:50.046Z,7.20
2022-10-11T06:51:21.169Z,6.40
2022-10-11T06:53:51.431Z,6.37
2022-10-11T06:56:20.179Z,7.27
2022-10-11T06:58:48.135Z,6.67
2022-10-11T07:01:18.902Z,6.80
2022-10-11T07:03:47.157Z,7.40
2022-10-11T07:06:16.742Z,7.37
2022-10-11T07:08:46.508Z,7.90
2022-10-11T07:11:16.518Z,7.27
2022-10-11T07:13:44.428Z,7.40
2022-10-11T07:16:13.810Z,7.10
2022-10-11T07:18:41.663Z,7.33
2022-10-11T07:21:13.856Z,6.87
2022-10-11T07:23:42.074Z,8.17
2022-10-11T07:26:12.433Z,7.53
2022-10-11T07:28:40.961Z,7.80
2022-10-11T07:31:10.427Z,7.47
2022-10-11T07:33:38.714Z,7.50
2022-10-11T07:36:08.338Z,7.30
2022-10-11T07:38:39.408Z,7.87
2022-10-11T07:41:08.258Z,7.90
2022-10-11T07:43:37.829Z,7.07
2022-10-11T07:46:06.680Z,7.87
2022-10-11T07:48:36.264Z,8.10
2022-10-11T07:51:06.604Z,8.17
2022-10-11T07:53:39.478Z,6.70
2022-10-11T07:56:08.667Z,7.47
2022-10-11T07:58:38.074Z,7.90
2022-10-11T08:01:07.128Z,8.07
2022-10-11T08:03:35.235Z,7.70
2022-10-11T08:06:04.191Z,7.67
2022-10-11T08:08:32.323Z,7.30
2022-10-11T08:11:00.596Z,6.60
2022-10-11T08:13:28.895Z,6.87
2022-10-11T08:15:58.241Z,6.87
2022-10-11T08:18:26.215Z,7.10
2022-10-11T08:20:54.130Z,6.57
2022-10-11T08:23:22.027Z,6.53
2022-10-11T08:25:49.814Z,7.10
2022-10-11T08:28:18.040Z,6.53
2022-10-11T08:30:50.560Z,6.00
2022-10-11T08:33:20.882Z,6.33
2022-10-11T08:35:49.145Z,6.60
2022-10-11T08:38:17.925Z,5.40
2022-10-11T08:40:50.531Z,6.13
2022-10-11T08:43:30.640Z,6.10
2022-10-11T08:46:02.946Z,5.20
2022-10-11T08:48:36.349Z,5.30
2022-10-11T08:51:14.887Z,4.83
2022-10-11T08:53:47.315Z,4.10
2022-10-11T08:56:17.258Z,4.13
2022-10-11T08:58:50.535Z,3.80
2022-10-11T09:01:22.588Z,3.90
2022-10-11T09:03:52.698Z,3.50
2022-10-11T09:06:33.438Z,3.73
2022-10-11T09:09:28.993Z,3.53
2022-10-11T09:12:10.855Z,3.63
2022-10-11T09:15:10.819Z,5.13
2022-10-11T09:17:50.523Z,4.50
2022-10-11T09:20:36.366Z,5.07
2022-10-11T09:23:12.678Z,4.80
2022-10-11T09:25:47.742Z,4.50
2022-10-11T09:28:22.944Z,4.63
2022-10-11T09:30:53.632Z,3.67
2022-10-11T09:33:25.220Z,4.50
2022-10-11T09:35:56.538Z,3.93
2022-10-11T09:38:36.323Z,3.27
2022-10-11T09:41:14.058Z,3.10
2022-10-11T09:43:45.833Z,3.10
2022-10-11T09:46:25.059Z,2.70
2022-10-11T09:48:54.524Z,2.93
2022-10-11T09:51:28.139Z,2.53
2022-10-11T09:54:16.465Z,2.73
2022-10-11T09:56:45.997Z,2.20
2022-10-11T09:59:27.014Z,2.60
2022-10-11T10:02:23.128Z,2.27
2022-10-11T10:05:00.442Z,2.57
2022-10-11T10:07:30.871Z,2.90
2022-10-11T10:09:59.421Z,2.90
2022-10-11T10:12:29.540Z,2.27
2022-10-11T10:15:06.740Z,2.33
2022-10-11T10:17:35.480Z,2.37
2022-10-11T10:20:05.548Z,2.20
2022-10-11T10:22:36.356Z,2.50
2022-10-11T10:25:08.009Z,2.80
2022-10-11T10:27:36.088Z,1.80
2022-10-11T10:30:14.285Z,2.07
2022-10-11T10:32:49.694Z,2.07
2022-10-11T10:35:28.079Z,2.10
2022-10-11T10:38:07.420Z,1.73
2022-10-11T10:40:41.961Z,2.60
2022-10-11T10:43:16.394Z,2.20
2022-10-11T10:46:15.588Z,1.83
2022-10-11T10:51:50.572Z,2.40
2022-10-11T10:54:28.131Z,2.43
2022-10-11T10:57:00.577Z,2.20
2022-10-11T10:59:46.063Z,2.23
2022-10-11T11:02:40.737Z,2.37
2022-10-11T11:05:17.426Z,2.10
2022-10-11T11:07:50.510Z,1.87
2022-10-11T11:10:23.102Z,1.83
2022-10-11T11:12:58.984Z,2.30
2022-10-11T11:15:34.350Z,1.77
2022-10-11T11:18:20.181Z,2.00
2022-10-11T11:21:01.961Z,2.10
2022-10-11T11:23:39.349Z,2.30
2022-10-11T11:26:19.247Z,2.10
2022-10-11T11:29:09.686Z,2.27
2022-10-11T11:31:51.417Z,2.00
2022-10-11T11:34:24.121Z,1.70
2022-10-11T11:36:57.189Z,1.87
2022-10-11T11:39:29.650Z,1.90
2022-10-11T11:42:05.076Z,1.80
2022-10-11T11:44:38.035Z,2.03
2022-10-11T11:47:11.736Z,1.90
2022-10-11T11:52:24.111Z,2.00
2022-10-11T11:55:00.183Z,1.80
2022-10-11T11:57:47.632Z,1.83
2022-10-11T12:00:18.770Z,1.93
2022-10-11T12:02:52.407Z,2.00
2022-10-11T12:05:23.349Z,1.73
2022-10-11T12:07:57.438Z,1.87
2022-10-11T12:10:33.477Z,2.50
2022-10-11T12:13:17.894Z,1.80
2022-10-11T12:16:10.647Z,2.20
2022-10-11T12:18:51.245Z,1.70
2022-10-11T12:21:23.085Z,2.20
2022-10-11T12:23:52.038Z,2.17
2022-10-11T12:26:51.790Z,2.23
2022-10-11T12:29:55.684Z,2.30
2022-10-11T12:32:52.435Z,1.80
2022-10-11T12:36:04.054Z,2.00
2022-10-11T12:38:37.731Z,1.87
2022-10-11T12:41:38.633Z,1.80
2022-10-11T12:44:20.203Z,1.97
2022-10-11T12:47:36.547Z,1.90
2022-10-11T12:50:15.227Z,2.00
2022-10-11T12:52:56.083Z,2.03
2022-10-11T12:55:36.106Z,1.97
2022-10-11T12:58:23.970Z,2.03
2022-10-11T13:01:18.538Z,2.00
2022-10-11T13:03:50.766Z,2.00
2022-10-11T13:06:24.731Z,2.03
2022-10-11T13:08:56.911Z,1.90
2022-10-11T13:11:29.105Z,2.30
2022-10-11T13:13:59.238Z,1.90
2022-10-11T13:16:29.871Z,2.07
2022-10-11T13:19:00.380Z,2.23
2022-10-11T13:21:33.066Z,1.80
2022-10-11T13:24:03.670Z,1.83
2022-10-11T13:26:32.865Z,1.90
2022-10-11T13:29:01.308Z,1.93
2022-10-11T13:31:29.321Z,2.00
2022-10-11T13:33:59.058Z,2.00
2022-10-11T13:36:28.369Z,1.73
2022-10-11T13:38:59.916Z,1.70
2022-10-11T13:41:29.307Z,2.10
2022-10-11T13:43:59.160Z,2.13
2022-10-11T13:46:28.650Z,1.50
2022-10-11T13:49:01.740Z,1.63
2022-10-11T13:51:33.173Z,1.90
2022-10-11T13:54:04.604Z,1.90
2022-10-11T13:56:36.313Z,1.70
2022-10-11T13:59:04.232Z,1.70
2022-10-11T14:01:39.365Z,1.87
2022-10-11T14:04:09.702Z,1.60
2022-10-11T14:06:46.182Z,1.70
2022-10-11T14:09:22.525Z,1.80
2022-10-11T14:11:50.858Z,1.90
2022-10-11T14:14:40.968Z,1.77
2022-10-11T14:17:15.923Z,1.97
2022-10-11T14:19:44.211Z,2.37
2022-10-11T14:22:15.668Z,2.03
2022-10-11T14:24:47.915Z,2.10
2022-10-11T14:27:19.180Z,1.80
2022-10-11T14:30:00.574Z,1.83
2022-10-11T14:32:36.288Z,2.10
2022-10-11T14:35:04.662Z,1.70
2022-10-11T14:37:32.502Z,1.73
2022-10-11T14:40:01.681Z,2.20
2022-10-11T14:42:29.520Z,1.97
2022-10-11T14:44:57.315Z,1.90
2022-10-11T14:47:25.136Z,2.00
2022-10-11T14:49:53.007Z,1.53
2022-10-11T14:52:20.824Z,1.90
2022-10-11T14:54:48.631Z,2.00
2022-10-11T14:57:17.794Z,1.70
2022-10-11T14:59:45.593Z,1.97
2022-10-11T15:02:13.485Z,2.03
2022-10-11T15:04:41.340Z,2.00
2022-10-11T15:07:09.209Z,1.80
2022-10-11T15:09:37.035Z,1.93
2022-10-11T15:12:05.347Z,1.97
2022-10-11T15:14:34.582Z,1.60
2022-10-11T15:17:02.465Z,1.70
2022-10-11T15:19:30.315Z,2.10
2022-10-11T15:21:58.155Z,2.00
2022-10-11T15:24:26.389Z,2.03
2022-10-11T15:26:54.198Z,2.03
2022-10-11T15:29:24.020Z,1.70
2022-10-11T15:31:53.215Z,1.70
2022-10-11T15:34:21.206Z,2.80
2022-10-11T15:36:49.860Z,2.10
2022-10-11T15:39:25.202Z,2.17
2022-10-11T15:41:53.050Z,2.10
2022-10-11T15:44:20.900Z,2.30
2022-10-11T15:46:48.725Z,1.70
2022-10-11T15:49:18.472Z,1.60
2022-10-11T15:51:46.914Z,2.00
2022-10-11T15:54:14.733Z,2.00
2022-10-11T15:56:43.150Z,1.90
2022-10-11T15:59:11.590Z,1.47
2022-10-11T16:01:39.616Z,2.10
2022-10-11T16:04:07.494Z,2.10
2022-10-11T16:06:36.668Z,1.90
2022-10-11T16:09:04.674Z,2.00
2022-10-11T16:11:32.488Z,2.10
2022-10-11T16:14:00.338Z,1.70
2022-10-11T16:16:28.214Z,1.77
2022-10-11T16:18:56.112Z,1.83
2022-10-11T16:21:24.170Z,2.03
2022-10-11T16:23:53.324Z,2.10
2022-10-11T16:26:21.153Z,2.40
2022-10-11T16:28:48.989Z,1.93
2022-10-11T16:31:20.637Z,1.77
2022-10-11T16:33:48.742Z,1.97
2022-10-11T16:36:35.682Z,1.93
2022-10-11T16:39:08.103Z,2.20
2022-10-11T16:41:36.115Z,2.23
2022-10-11T16:44:04.412Z,2.43
2022-10-11T16:46:33.122Z,2.17
2022-10-11T16:49:01.059Z,2.53
2022-10-11T16:51:28.879Z,2.03
2022-10-11T16:53:56.888Z,1.77
2022-10-11T16:56:26.046Z,2.10
2022-10-11T16:58:54.071Z,1.80
2022-10-11T17:01:22.503Z,1.97
2022-10-11T17:03:51.035Z,2.10
2022-10-11T17:06:19.984Z,1.77
2022-10-11T17:08:47.944Z,1.90
2022-10-11T17:11:17.332Z,2.07
2022-10-11T17:13:47.075Z,2.03
2022-10-11T17:16:15.701Z,2.20
2022-10-11T17:18:43.786Z,2.37
2022-10-11T17:21:14.049Z,2.13
2022-10-11T17:23:42.244Z,1.80
2022-10-11T17:26:13.439Z,1.87
2022-10-11T17:28:41.638Z,1.73
2022-10-11T17:31:10.854Z,2.00
2022-10-11T17:33:39.295Z,2.00
2022-10-11T17:36:15.751Z,2.20
2022-10-11T17:38:43.751Z,1.77
2022-10-11T17:41:11.872Z,1.73
2022-10-11T17:43:39.754Z,1.63
2022-10-11T17:46:09.010Z,1.70
2022-10-11T17:48:39.293Z,2.03
2022-10-11T17:51:08.897Z,1.70
2022-10-11T17:53:37.677Z,2.37
2022-10-11T17:56:07.625Z,2.00
2022-10-11T17:58:35.648Z,1.97
2022-10-11T18:01:06.017Z,2.10
2022-10-11T18:03:34.328Z,2.03
2022-10-11T18:06:05.600Z,1.97
2022-10-11T18:08:39.189Z,2.13
2022-10-11T18:11:11.480Z,1.80
2022-10-11T18:13:42.378Z,2.23
2022-10-11T18:16:10.762Z,2.20
2022-10-11T18:18:39.272Z,1.90
2022-10-11T18:21:08.587Z,2.00
2022-10-11T18:23:38.068Z,2.40
2022-10-11T18:26:10.718Z,2.50
2022-10-11T18:28:38.712Z,2.13
2022-10-11T18:31:12.568Z,2.23
2022-10-11T18:33:41.569Z,2.10
2022-10-11T18:36:13.457Z,2.07
2022-10-11T18:38:46.173Z,2.30
2022-10-11T18:41:16.477Z,2.30
2022-10-11T18:43:44.485Z,2.70
2022-10-11T18:46:14.276Z,3.20
2022-10-11T18:48:42.624Z,4.00
2022-10-11T18:51:14.098Z,3.03
2022-10-11T18:53:42.603Z,2.47
2022-10-11T18:56:12.484Z,2.83
2022-10-11T18:58:41.563Z,2.27
2022-10-11T19:01:10.988Z,2.50
2022-10-11T19:03:39.106Z,2.90
2022-10-11T19:06:09.434Z,3.00
2022-10-11T19:08:38.783Z,2.47
2022-10-11T19:11:07.610Z,2.63
2022-10-11T19:13:36.031Z,2.97
2022-10-11T19:16:06.118Z,2.30
2022-10-11T19:18:34.799Z,3.10
2022-10-11T19:21:03.831Z,2.70
2022-10-11T19:23:35.498Z,2.90
2022-10-11T19:26:05.033Z,2.70
2022-10-11T19:28:33.350Z,2.60
2022-10-11T19:31:05.839Z,3.20
2022-10-11T19:33:34.718Z,2.60
2022-10-11T19:36:04.559Z,3.07
2022-10-11T19:38:33.518Z,2.90
2022-10-11T19:41:01.814Z,3.00
2022-10-11T19:43:31.033Z,2.90
2022-10-11T19:46:01.608Z,2.80
2022-10-11T19:48:30.048Z,2.90
2022-10-11T19:51:03.610Z,3.20
2022-10-11T19:53:31.430Z,2.97
2022-10-11T19:56:02.074Z,3.00
2022-10-11T19:58:31.557Z,3.43
2022-10-11T20:01:04.026Z,3.60
2022-10-11T20:03:32.840Z,3.40
2022-10-11T20:06:26.680Z,4.50
2022-10-11T20:09:16.505Z,3.50
2022-10-11T20:11:43.268Z,3.30
2022-10-11T20:14:12.440Z,3.50
2022-10-11T20:16:42.149Z,3.87
2022-10-11T20:19:09.986Z,4.00
2022-10-11T20:21:38.367Z,4.20
2022-10-11T20:24:08.415Z,4.47
2022-10-11T20:26:36.292Z,4.60
2022-10-11T20:29:04.368Z,4.90
2022-10-11T20:31:37.991Z,5.17
2022-10-11T20:34:07.343Z,4.30
2022-10-11T20:36:36.846Z,6.40
2022-10-11T20:39:06.591Z,5.70
2022-10-11T20:41:39.612Z,5.90
2022-10-11T20:44:08.766Z,5.90
2022-10-11T20:46:39.570Z,6.10
2022-10-11T20:49:08.891Z,5.43
2022-10-11T20:51:38.900Z,6.27
2022-10-11T20:54:07.331Z,6.50
2022-10-11T20:56:36.053Z,6.03
2022-10-11T20:59:04.145Z,6.20
2022-10-11T21:01:34.318Z,6.60
2022-10-11T21:04:04.594Z,6.20
2022-10-11T21:06:34.209Z,6.57
2022-10-11T21:09:02.178Z,6.83
2022-10-11T21:11:31.748Z,6.53
2022-10-11T21:14:01.971Z,6.70
2022-10-11T21:16:30.202Z,6.33
2022-10-11T21:18:59.824Z,6.90
2022-10-11T21:21:30.241Z,7.67
2022-10-11T21:23:59.853Z,7.07
2022-10-11T21:26:28.407Z,7.33
2022-10-11T21:28:56.412Z,6.53
2022-10-11T21:31:25.892Z,7.30
2022-10-11T21:33:55.275Z,6.27
2022-10-11T21:36:24.888Z,7.10
2022-10-11T21:38:54.642Z,7.60
2022-10-11T21:41:25.307Z,7.93
2022-10-11T21:43:53.902Z,7.40
2022-10-11T21:46:32.517Z,8.50
2022-10-11T21:49:09.783Z,7.23
2022-10-11T21:51:37.613Z,7.40
2022-10-11T21:54:07.099Z,7.57
2022-10-11T21:56:34.924Z,9.07
2022-10-11T21:59:05.400Z,9.20
2022-10-11T22:01:36.691Z,8.93
2022-10-11T22:04:07.064Z,8.70
2022-10-11T22:06:35.563Z,9.17
2022-10-11T22:09:03.740Z,8.80
2022-10-11T22:11:32.977Z,9.37
2022-10-11T22:14:00.805Z,8.37
2022-10-11T22:16:28.754Z,8.87
2022-10-11T22:18:56.636Z,8.67
2022-10-11T22:21:25.562Z,8.40
2022-10-11T22:23:54.628Z,9.23
2022-10-11T22:26:24.411Z,9.00
2022-10-11T22:28:54.133Z,8.43
2022-10-11T22:31:23.272Z,8.60
2022-10-11T22:33:54.548Z,9.10
2022-10-11T22:36:24.107Z,8.83
2022-10-11T22:38:52.350Z,8.57
2022-10-11T22:41:20.221Z,8.80
2022-10-11T22:43:48.002Z,9.40
2022-10-11T22:46:17.476Z,9.00
2022-10-11T22:48:45.302Z,9.00
2022-10-11T22:51:13.545Z,8.40
2022-10-11T22:53:41.378Z,8.53
2022-10-11T22:56:10.595Z,8.30
2022-10-11T22:58:38.637Z,8.87
2022-10-11T23:01:10.383Z,8.07
2022-10-11T23:03:39.951Z,8.77
2022-10-11T23:06:08.068Z,8.77
2022-10-11T23:08:35.887Z,8.00
2022-10-11T23:11:05.023Z,7.93
2022-10-11T23:13:32.849Z,7.80
2022-10-11T23:16:00.751Z,8.00
2022-10-11T23:18:28.602Z,7.83
2022-10-11T23:21:00.746Z,7.37
2022-10-11T23:23:29.075Z,7.17
2022-10-11T23:26:04.658Z,7.63
2022-10-11T23:28:32.572Z,7.47
2022-10-11T23:31:00.477Z,8.60
2022-10-11T23:33:29.421Z,8.13
2022-10-11T23:35:58.588Z,8.63
2022-10-11T23:38:26.458Z,7.83
2022-10-11T23:40:54.274Z,7.60
2022-10-11T23:43:22.647Z,8.73
2022-10-11T23:45:51.143Z,7.77
2022-10-11T23:48:18.969Z,8.03
2022-10-11T23:50:46.826Z,8.40
2022-10-11T23:53:15.983Z,7.87
2022-10-11T23:55:43.931Z,8.17
2022-10-11T23:58:11.763Z,7.80
